createdAt,value
2023-12-07T00:00:43.518Z,10.07
2023-12-07T00:10:45.991Z,9.63
2023-12-07T00:20:49.020Z,13.52
2023-12-07T00:30:51.763Z,10.77
2023-12-07T00:40:54.061Z,12.97
2023-12-07T00:50:56.348Z,9.23
2023-12-07T01:00:58.725Z,12.90
2023-12-07T01:11:01.137Z,12.03
2023-12-07T01:21:04.099Z,12.83
2023-12-07T01:31:06.567Z,14.05
2023-12-07T01:41:08.960Z,13.10
2023-12-07T01:51:12.392Z,14.13
2023-12-07T02:01:15.024Z,13.67
2023-12-07T02:11:17.528Z,13.07
2023-12-07T02:21:25.255Z,13.77
2023-12-07T02:31:28.000Z,12.80
2023-12-07T02:41:32.290Z,13.98
2023-12-07T02:51:34.765Z,13.70
2023-12-07T03:01:37.597Z,13.63
2023-12-07T03:21:42.701Z,14.53
2023-12-07T03:31:45.063Z,13.20
2023-12-07T03:41:47.484Z,10.73
2023-12-07T04:01:52.584Z,12.50
2023-12-07T04:11:55.001Z,13.30
2023-12-07T04:21:57.587Z,10.17
2023-12-07T04:32:01.127Z,13.98
2023-12-07T04:42:06.256Z,14.40
2023-12-07T04:52:08.702Z,14.35
2023-12-07T05:02:11.118Z,13.10
2023-12-07T05:12:13.499Z,15.17
2023-12-07T05:22:16.076Z,14.13
2023-12-07T05:32:19.068Z,14.20
2023-12-07T05:42:21.981Z,14.07
2023-12-07T05:52:24.889Z,13.00
2023-12-07T06:02:27.965Z,12.67
2023-12-07T06:12:31.366Z,13.30
2023-12-07T06:22:34.177Z,13.83
2023-12-07T06:32:36.908Z,13.98
2023-12-07T06:42:39.606Z,15.70
2023-12-07T06:52:42.263Z,15.23
2023-12-07T07:02:44.996Z,14.38
2023-12-07T07:12:47.385Z,17.38
2023-12-07T07:22:50.191Z,14.23
2023-12-07T07:32:52.946Z,14.07
2023-12-07T07:42:55.433Z,14.55
2023-12-07T07:52:57.857Z,15.23
2023-12-07T08:03:00.357Z,10.20
2023-12-07T08:13:02.948Z,14.43
2023-12-07T08:23:05.551Z,13.77
2023-12-07T08:33:08.125Z,13.85
2023-12-07T08:43:10.589Z,12.43
2023-12-07T08:53:13.064Z,14.97
2023-12-07T09:03:15.543Z,15.47
2023-12-07T09:13:18.413Z,14.90
2023-12-07T09:23:20.911Z,14.00
2023-12-07T09:33:23.462Z,10.10
2023-12-07T09:43:25.884Z,12.50
2023-12-07T09:53:34.757Z,12.80
2023-12-07T10:03:37.117Z,14.07
2023-12-07T10:13:40.057Z,10.83
2023-12-07T10:23:48.494Z,15.93
2023-12-07T10:33:52.247Z,14.03
2023-12-07T10:53:59.266Z,16.67
2023-12-07T11:04:02.445Z,16.33
2023-12-07T11:14:06.433Z,15.48
2023-12-07T11:24:08.868Z,16.73
2023-12-07T11:34:15.196Z,17.20
2023-12-07T11:44:18.977Z,16.50
2023-12-07T11:54:22.360Z,15.77
2023-12-07T12:04:24.785Z,14.73
2023-12-07T12:14:27.825Z,17.00
2023-12-07T12:34:34.931Z,13.70
2023-12-07T12:44:39.523Z,12.33
2023-12-07T12:54:44.013Z,12.47
2023-12-07T13:14:51.547Z,13.10
2023-12-07T13:24:55.541Z,12.77
2023-12-07T13:34:58.261Z,14.60
2023-12-07T13:45:01.514Z,15.47
2023-12-07T13:55:06.836Z,15.80
2023-12-07T14:05:09.453Z,13.77
2023-12-07T14:15:12.509Z,13.53
2023-12-07T14:25:14.834Z,10.87
2023-12-07T14:35:17.559Z,12.02
2023-12-07T14:45:22.091Z,11.40
2023-12-07T15:05:27.609Z,9.13
2023-12-07T15:15:31.589Z,9.60
2023-12-07T15:25:34.012Z,9.53
2023-12-07T15:35:36.553Z,9.88
2023-12-07T15:55:41.260Z,9.53
2023-12-07T16:05:43.716Z,8.73
2023-12-07T16:15:46.226Z,8.88
2023-12-07T16:25:48.505Z,8.98
2023-12-07T16:35:52.500Z,8.17
2023-12-07T16:55:57.364Z,8.77
2023-12-07T17:26:05.603Z,5.23
2023-12-07T17:36:08.293Z,9.30
2023-12-07T17:46:10.687Z,6.87
2023-12-07T17:56:13.444Z,7.83
2023-12-07T18:16:18.736Z,5.17
2023-12-07T18:26:23.289Z,6.63
2023-12-07T18:36:26.006Z,7.60
2023-12-07T18:46:29.530Z,6.47
2023-12-07T18:56:31.919Z,6.83
2023-12-07T19:06:34.553Z,9.25
2023-12-07T19:16:37.051Z,7.87
2023-12-07T19:26:39.545Z,7.05
2023-12-07T19:36:42.683Z,8.02
2023-12-07T19:46:45.433Z,7.57
2023-12-07T20:06:50.046Z,10.67
2023-12-07T20:16:53.135Z,6.93
2023-12-07T20:26:55.527Z,8.03
2023-12-07T20:36:59.587Z,6.57
2023-12-07T20:47:02.021Z,6.53
2023-12-07T20:57:04.420Z,7.80
2023-12-07T21:07:06.772Z,6.63
2023-12-07T21:17:13.311Z,6.75
2023-12-07T21:27:15.832Z,7.57
2023-12-07T21:37:18.273Z,7.30
2023-12-07T21:57:22.999Z,8.23
2023-12-07T22:07:25.829Z,7.97
2023-12-07T22:17:28.405Z,7.37
2023-12-07T22:27:31.102Z,8.07
2023-12-07T22:37:33.463Z,7.70
2023-12-07T22:57:38.187Z,7.93
2023-12-07T23:17:42.645Z,6.57
2023-12-07T23:27:45.083Z,7.13
2023-12-07T23:37:48.298Z,6.57
2023-12-07T23:47:51.182Z,6.33
2023-12-07T23:57:53.618Z,7.07
